KGLR/GLR METAR and TAF weather

Enter ICAO airport designator
Station Type Date Time Source
KGLR METAR 2019/10/21 02:20 UTC NOAA

KGLR 210220Z AUTO 00000KT 10SM SCT005 07/07 A3001 RMK AO2 T00720067


Station Type Date Time Source
KGLR Decoded METAR 2019/10/21 02:20 UTC NOAA

GAYLORD REGIONAL AIRPORT, MI, United States (KGLR) 45-01N 84-41W 407M
Oct 20, 2019 - 10:20 PM EDT / 2019.10.21 0220 UTC
Wind: Calm:0
Visibility: 10 mile(s):0
Sky conditions: partly cloudy
Temperature: 45.0 F (7.2 C)
Dew Point: 44.1 F (6.7 C)
Relative Humidity: 96%
Pressure (altimeter): 30.01 in. Hg (1016 hPa)
ob: KGLR 210220Z AUTO 00000KT 10SM SCT005 07/07 A3001 RMK AO2 T00720067
cycle: 2

Station Type Date Time Source
KGLR TAF UTC NOAA

Error!

Example: see airport list